sensor_id;sensor_type;location;lat;lon;timestamp;temperature;humidity
66710;DHT22;53624;0.000;0.000;2023-10-09T00:01:25;19.90;97.90
66710;DHT22;53624;0.000;0.000;2023-10-09T00:03:52;19.90;98.00
66710;DHT22;53624;0.000;0.000;2023-10-09T00:06:22;19.90;97.90
66710;DHT22;53624;0.000;0.000;2023-10-09T00:09:02;19.90;97.90
66710;DHT22;53624;0.000;0.000;2023-10-09T00:11:54;19.90;97.90
66710;DHT22;53624;0.000;0.000;2023-10-09T00:14:23;19.90;97.90
66710;DHT22;53624;0.000;0.000;2023-10-09T00:16:51;19.90;97.90
66710;DHT22;53624;0.000;0.000;2023-10-09T00:19:29;19.90;97.90
66710;DHT22;53624;0.000;0.000;2023-10-09T00:22:00;19.90;97.90
66710;DHT22;53624;0.000;0.000;2023-10-09T00:24:36;19.90;97.90
66710;DHT22;53624;0.000;0.000;2023-10-09T00:27:11;19.80;97.90
66710;DHT22;53624;0.000;0.000;2023-10-09T00:29:38;19.80;97.90
66710;DHT22;53624;0.000;0.000;2023-10-09T00:32:10;19.80;97.90
66710;DHT22;53624;0.000;0.000;2023-10-09T00:34:48;19.80;97.90
66710;DHT22;53624;0.000;0.000;2023-10-09T00:37:18;19.80;97.90
66710;DHT22;53624;0.000;0.000;2023-10-09T00:39:48;19.80;97.90
66710;DHT22;53624;0.000;0.000;2023-10-09T00:42:21;19.70;97.80
66710;DHT22;53624;0.000;0.000;2023-10-09T00:44:53;19.70;97.80
66710;DHT22;53624;0.000;0.000;2023-10-09T00:47:21;19.70;97.90
66710;DHT22;53624;0.000;0.000;2023-10-09T00:49:53;19.70;97.90
66710;DHT22;53624;0.000;0.000;2023-10-09T00:52:28;19.70;97.80
66710;DHT22;53624;0.000;0.000;2023-10-09T00:54:58;19.70;97.80
66710;DHT22;53624;0.000;0.000;2023-10-09T00:57:35;19.70;97.80
66710;DHT22;53624;0.000;0.000;2023-10-09T01:00:07;19.70;97.80
66710;DHT22;53624;0.000;0.000;2023-10-09T01:02:49;19.70;97.80
66710;DHT22;53624;0.000;0.000;2023-10-09T01:05:36;19.60;97.80
66710;DHT22;53624;0.000;0.000;2023-10-09T01:08:05;19.60;97.80
66710;DHT22;53624;0.000;0.000;2023-10-09T01:10:45;19.70;97.80
66710;DHT22;53624;0.000;0.000;2023-10-09T01:13:17;19.60;97.70
66710;DHT22;53624;0.000;0.000;2023-10-09T01:15:45;19.60;97.70
66710;DHT22;53624;0.000;0.000;2023-10-09T01:18:14;19.60;97.70
66710;DHT22;53624;0.000;0.000;2023-10-09T01:20:42;19.60;97.70
66710;DHT22;53624;0.000;0.000;2023-10-09T01:23:12;19.60;97.70
66710;DHT22;53624;0.000;0.000;2023-10-09T01:25:40;19.60;97.80
66710;DHT22;53624;0.000;0.000;2023-10-09T01:28:15;19.50;97.70
66710;DHT22;53624;0.000;0.000;2023-10-09T01:30:44;19.60;97.70
66710;DHT22;53624;0.000;0.000;2023-10-09T01:33:14;19.50;97.70
66710;DHT22;53624;0.000;0.000;2023-10-09T01:35:48;19.60;97.70
66710;DHT22;53624;0.000;0.000;2023-10-09T01:38:23;19.50;97.70
66710;DHT22;53624;0.000;0.000;2023-10-09T01:40:59;19.50;97.70
66710;DHT22;53624;0.000;0.000;2023-10-09T01:43:33;19.50;97.70
66710;DHT22;53624;0.000;0.000;2023-10-09T01:46:01;19.50;97.70
66710;DHT22;53624;0.000;0.000;2023-10-09T01:48:31;19.50;97.70
66710;DHT22;53624;0.000;0.000;2023-10-09T01:51:03;19.50;97.70
66710;DHT22;53624;0.000;0.000;2023-10-09T01:53:36;19.40;97.70
66710;DHT22;53624;0.000;0.000;2023-10-09T01:56:10;19.40;97.70
66710;DHT22;53624;0.000;0.000;2023-10-09T01:58:41;19.40;97.70
66710;DHT22;53624;0.000;0.000;2023-10-09T02:01:11;19.40;97.70
66710;DHT22;53624;0.000;0.000;2023-10-09T02:03:39;19.40;97.70
66710;DHT22;53624;0.000;0.000;2023-10-09T02:06:09;19.40;97.70
66710;DHT22;53624;0.000;0.000;2023-10-09T02:08:54;19.40;97.70
66710;DHT22;53624;0.000;0.000;2023-10-09T02:11:22;19.40;97.70
66710;DHT22;53624;0.000;0.000;2023-10-09T02:14:11;19.40;97.60
66710;DHT22;53624;0.000;0.000;2023-10-09T02:16:46;19.40;97.60
66710;DHT22;53624;0.000;0.000;2023-10-09T02:19:29;19.40;97.60
66710;DHT22;53624;0.000;0.000;2023-10-09T02:21:59;19.40;97.60
66710;DHT22;53624;0.000;0.000;2023-10-09T02:24:31;19.30;97.60
66710;DHT22;53624;0.000;0.000;2023-10-09T02:27:15;19.30;97.60
66710;DHT22;53624;0.000;0.000;2023-10-09T02:30:02;19.30;97.60
66710;DHT22;53624;0.000;0.000;2023-10-09T02:32:42;19.30;97.60
66710;DHT22;53624;0.000;0.000;2023-10-09T02:35:09;19.30;97.60
66710;DHT22;53624;0.000;0.000;2023-10-09T02:37:46;19.30;97.60
66710;DHT22;53624;0.000;0.000;2023-10-09T02:40:15;19.30;97.60
66710;DHT22;53624;0.000;0.000;2023-10-09T02:42:57;19.30;97.60
66710;DHT22;53624;0.000;0.000;2023-10-09T02:45:24;19.30;97.60
66710;DHT22;53624;0.000;0.000;2023-10-09T02:48:01;19.30;97.60
66710;DHT22;53624;0.000;0.000;2023-10-09T02:50:36;19.20;97.50
66710;DHT22;53624;0.000;0.000;2023-10-09T02:53:10;19.20;97.50
66710;DHT22;53624;0.000;0.000;2023-10-09T02:55:45;19.20;97.50
66710;DHT22;53624;0.000;0.000;2023-10-09T02:58:29;19.20;97.50
66710;DHT22;53624;0.000;0.000;2023-10-09T03:00:58;19.20;97.50
66710;DHT22;53624;0.000;0.000;2023-10-09T03:03:26;19.20;97.50
66710;DHT22;53624;0.000;0.000;2023-10-09T03:05:54;19.20;97.50
66710;DHT22;53624;0.000;0.000;2023-10-09T03:08:21;19.20;97.50
66710;DHT22;53624;0.000;0.000;2023-10-09T03:10:50;19.20;97.50
66710;DHT22;53624;0.000;0.000;2023-10-09T03:13:17;19.20;97.50
66710;DHT22;53624;0.000;0.000;2023-10-09T03:15:46;19.20;97.50
66710;DHT22;53624;0.000;0.000;2023-10-09T03:18:14;19.20;97.50
66710;DHT22;53624;0.000;0.000;2023-10-09T03:20:42;19.20;97.40
66710;DHT22;53624;0.000;0.000;2023-10-09T03:23:10;19.10;97.40
66710;DHT22;53624;0.000;0.000;2023-10-09T03:25:40;19.10;97.40
66710;DHT22;53624;0.000;0.000;2023-10-09T03:28:12;19.10;97.40
66710;DHT22;53624;0.000;0.000;2023-10-09T03:30:41;19.10;97.40
66710;DHT22;53624;0.000;0.000;2023-10-09T03:33:13;19.10;97.40
66710;DHT22;53624;0.000;0.000;2023-10-09T03:35:41;19.10;97.40
66710;DHT22;53624;0.000;0.000;2023-10-09T03:38:09;19.10;97.40
66710;DHT22;53624;0.000;0.000;2023-10-09T03:40:42;19.00;97.40
66710;DHT22;53624;0.000;0.000;2023-10-09T03:43:09;19.00;97.40
66710;DHT22;53624;0.000;0.000;2023-10-09T03:45:39;19.00;97.40
66710;DHT22;53624;0.000;0.000;2023-10-09T03:48:18;19.00;97.30
66710;DHT22;53624;0.000;0.000;2023-10-09T03:50:57;19.00;97.40
66710;DHT22;53624;0.000;0.000;2023-10-09T03:53:34;19.00;97.40
66710;DHT22;53624;0.000;0.000;2023-10-09T03:56:05;19.00;97.30
66710;DHT22;53624;0.000;0.000;2023-10-09T03:58:38;19.00;97.30
66710;DHT22;53624;0.000;0.000;2023-10-09T04:01:10;19.00;97.30
66710;DHT22;53624;0.000;0.000;2023-10-09T04:03:43;18.90;97.30
66710;DHT22;53624;0.000;0.000;2023-10-09T04:06:11;18.90;97.30
66710;DHT22;53624;0.000;0.000;2023-10-09T04:08:38;18.90;97.30
66710;DHT22;53624;0.000;0.000;2023-10-09T04:11:13;18.90;97.30
66710;DHT22;53624;0.000;0.000;2023-10-09T04:13:43;18.90;97.30
66710;DHT22;53624;0.000;0.000;2023-10-09T04:16:13;18.90;97.30
66710;DHT22;53624;0.000;0.000;2023-10-09T04:18:59;18.90;97.30
66710;DHT22;53624;0.000;0.000;2023-10-09T04:21:37;18.90;97.30
66710;DHT22;53624;0.000;0.000;2023-10-09T04:24:03;18.90;97.20
66710;DHT22;53624;0.000;0.000;2023-10-09T04:26:48;18.90;97.30
66710;DHT22;53624;0.000;0.000;2023-10-09T04:29:21;18.90;97.20
66710;DHT22;53624;0.000;0.000;2023-10-09T04:31:53;18.90;97.20
66710;DHT22;53624;0.000;0.000;2023-10-09T04:34:22;18.80;97.20
66710;DHT22;53624;0.000;0.000;2023-10-09T04:36:48;18.80;97.20
66710;DHT22;53624;0.000;0.000;2023-10-09T04:39:17;18.80;97.20
66710;DHT22;53624;0.000;0.000;2023-10-09T04:42:12;18.80;97.50
66710;DHT22;53624;0.000;0.000;2023-10-09T04:44:46;18.80;97.30
66710;DHT22;53624;0.000;0.000;2023-10-09T04:47:34;18.80;97.20
66710;DHT22;53624;0.000;0.000;2023-10-09T04:50:05;18.80;97.20
66710;DHT22;53624;0.000;0.000;2023-10-09T04:52:34;18.80;97.20
66710;DHT22;53624;0.000;0.000;2023-10-09T04:55:19;18.80;97.20
66710;DHT22;53624;0.000;0.000;2023-10-09T04:57:50;18.70;97.20
66710;DHT22;53624;0.000;0.000;2023-10-09T05:00:38;18.70;97.20
66710;DHT22;53624;0.000;0.000;2023-10-09T05:03:30;18.70;97.20
66710;DHT22;53624;0.000;0.000;2023-10-09T05:06:09;18.70;97.20
66710;DHT22;53624;0.000;0.000;2023-10-09T05:08:47;18.70;97.20
66710;DHT22;53624;0.000;0.000;2023-10-09T05:11:14;18.70;97.10
66710;DHT22;53624;0.000;0.000;2023-10-09T05:13:58;18.70;97.10
66710;DHT22;53624;0.000;0.000;2023-10-09T05:16:37;18.70;97.40
66710;DHT22;53624;0.000;0.000;2023-10-09T05:19:05;18.70;97.00
66710;DHT22;53624;0.000;0.000;2023-10-09T05:21:33;18.70;97.10
66710;DHT22;53624;0.000;0.000;2023-10-09T05:24:10;18.70;97.10
66710;DHT22;53624;0.000;0.000;2023-10-09T05:26:45;18.70;97.00
66710;DHT22;53624;0.000;0.000;2023-10-09T05:29:41;18.60;97.00
66710;DHT22;53624;0.000;0.000;2023-10-09T05:32:25;18.60;97.00
66710;DHT22;53624;0.000;0.000;2023-10-09T05:34:57;18.60;97.00
66710;DHT22;53624;0.000;0.000;2023-10-09T05:37:41;18.60;97.00
66710;DHT22;53624;0.000;0.000;2023-10-09T05:40:12;18.60;97.00
66710;DHT22;53624;0.000;0.000;2023-10-09T05:42:57;18.60;96.90
66710;DHT22;53624;0.000;0.000;2023-10-09T05:45:28;18.60;96.90
66710;DHT22;53624;0.000;0.000;2023-10-09T05:48:25;18.60;96.90
66710;DHT22;53624;0.000;0.000;2023-10-09T05:51:11;18.60;96.90
66710;DHT22;53624;0.000;0.000;2023-10-09T05:54:06;18.60;96.90
66710;DHT22;53624;0.000;0.000;2023-10-09T05:56:52;18.50;96.90
66710;DHT22;53624;0.000;0.000;2023-10-09T05:59:57;18.50;96.90
66710;DHT22;53624;0.000;0.000;2023-10-09T06:02:42;18.30;95.20
66710;DHT22;53624;0.000;0.000;2023-10-09T06:05:25;17.40;95.80
66710;DHT22;53624;0.000;0.000;2023-10-09T06:08:14;17.00;96.60
66710;DHT22;53624;0.000;0.000;2023-10-09T06:10:50;16.80;97.20
66710;DHT22;53624;0.000;0.000;2023-10-09T06:13:31;16.70;97.40
66710;DHT22;53624;0.000;0.000;2023-10-09T06:16:12;16.70;97.40
66710;DHT22;53624;0.000;0.000;2023-10-09T06:19:07;16.60;97.70
66710;DHT22;53624;0.000;0.000;2023-10-09T06:21:38;16.50;98.00
66710;DHT22;53624;0.000;0.000;2023-10-09T06:24:24;16.40;98.10
66710;DHT22;53624;0.000;0.000;2023-10-09T06:26:54;16.40;98.40
66710;DHT22;53624;0.000;0.000;2023-10-09T06:29:38;16.30;98.50
66710;DHT22;53624;0.000;0.000;2023-10-09T06:32:16;16.10;98.90
66710;DHT22;53624;0.000;0.000;2023-10-09T06:35:00;16.10;99.00
66710;DHT22;53624;0.000;0.000;2023-10-09T06:37:55;16.00;99.40
66710;DHT22;53624;0.000;0.000;2023-10-09T06:40:49;16.10;99.20
66710;DHT22;53624;0.000;0.000;2023-10-09T06:43:34;16.00;99.40
66710;DHT22;53624;0.000;0.000;2023-10-09T06:46:16;16.00;99.50
66710;DHT22;53624;0.000;0.000;2023-10-09T06:48:57;16.00;99.60
66710;DHT22;53624;0.000;0.000;2023-10-09T06:51:41;16.00;99.70
66710;DHT22;53624;0.000;0.000;2023-10-09T06:54:10;16.00;99.80
66710;DHT22;53624;0.000;0.000;2023-10-09T06:56:40;16.00;99.90
66710;DHT22;53624;0.000;0.000;2023-10-09T06:59:25;15.90;99.90
66710;DHT22;53624;0.000;0.000;2023-10-09T07:02:07;16.00;99.90
66710;DHT22;53624;0.000;0.000;2023-10-09T07:04:52;16.00;99.90
66710;DHT22;53624;0.000;0.000;2023-10-09T07:07:21;16.10;99.90
66710;DHT22;53624;0.000;0.000;2023-10-09T07:09:52;16.10;99.90
66710;DHT22;53624;0.000;0.000;2023-10-09T07:12:42;16.10;99.90
66710;DHT22;53624;0.000;0.000;2023-10-09T07:15:10;16.10;99.90
66710;DHT22;53624;0.000;0.000;2023-10-09T07:17:55;16.20;99.90
66710;DHT22;53624;0.000;0.000;2023-10-09T07:20:42;16.30;99.90
66710;DHT22;53624;0.000;0.000;2023-10-09T07:23:18;16.40;99.90
66710;DHT22;53624;0.000;0.000;2023-10-09T07:25:48;16.40;99.90
66710;DHT22;53624;0.000;0.000;2023-10-09T07:28:24;16.50;99.90
66710;DHT22;53624;0.000;0.000;2023-10-09T07:31:08;16.60;99.90
66710;DHT22;53624;0.000;0.000;2023-10-09T07:33:50;16.90;99.90
66710;DHT22;53624;0.000;0.000;2023-10-09T07:36:22;16.90;99.90
66710;DHT22;53624;0.000;0.000;2023-10-09T07:39:04;16.90;99.90
66710;DHT22;53624;0.000;0.000;2023-10-09T07:41:41;17.00;99.90
66710;DHT22;53624;0.000;0.000;2023-10-09T07:44:22;17.00;99.90
66710;DHT22;53624;0.000;0.000;2023-10-09T07:47:03;17.20;99.90
66710;DHT22;53624;0.000;0.000;2023-10-09T07:49:48;17.30;99.90
66710;DHT22;53624;0.000;0.000;2023-10-09T07:52:20;17.50;99.90
66710;DHT22;53624;0.000;0.000;2023-10-09T07:54:49;17.80;99.60
66710;DHT22;53624;0.000;0.000;2023-10-09T07:57:31;17.80;98.50
66710;DHT22;53624;0.000;0.000;2023-10-09T08:00:05;18.00;99.30
66710;DHT22;53624;0.000;0.000;2023-10-09T08:02:59;18.70;99.10
66710;DHT22;53624;0.000;0.000;2023-10-09T08:05:28;20.10;96.30
66710;DHT22;53624;0.000;0.000;2023-10-09T08:07:59;20.80;94.70
66710;DHT22;53624;0.000;0.000;2023-10-09T08:10:51;21.30;94.10
66710;DHT22;53624;0.000;0.000;2023-10-09T08:13:38;21.40;93.30
66710;DHT22;53624;0.000;0.000;2023-10-09T08:16:23;21.80;92.70
66710;DHT22;53624;0.000;0.000;2023-10-09T08:18:50;22.40;92.00
66710;DHT22;53624;0.000;0.000;2023-10-09T08:21:18;22.60;91.60
66710;DHT22;53624;0.000;0.000;2023-10-09T08:24:07;22.80;91.40
66710;DHT22;53624;0.000;0.000;2023-10-09T08:26:54;22.90;91.10
66710;DHT22;53624;0.000;0.000;2023-10-09T08:29:46;23.00;90.70
66710;DHT22;53624;0.000;0.000;2023-10-09T08:32:13;23.10;91.10
66710;DHT22;53624;0.000;0.000;2023-10-09T08:35:04;23.20;90.90
66710;DHT22;53624;0.000;0.000;2023-10-09T08:37:33;23.10;91.00
66710;DHT22;53624;0.000;0.000;2023-10-09T08:40:00;22.50;91.90
66710;DHT22;53624;0.000;0.000;2023-10-09T08:42:33;21.80;92.80
66710;DHT22;53624;0.000;0.000;2023-10-09T08:45:02;21.30;94.00
66710;DHT22;53624;0.000;0.000;2023-10-09T08:47:31;21.10;94.80
66710;DHT22;53624;0.000;0.000;2023-10-09T08:49:59;21.00;94.80
66710;DHT22;53624;0.000;0.000;2023-10-09T08:52:27;21.00;95.10
66710;DHT22;53624;0.000;0.000;2023-10-09T08:54:54;21.00;95.50
66710;DHT22;53624;0.000;0.000;2023-10-09T08:57:22;21.00;95.30
66710;DHT22;53624;0.000;0.000;2023-10-09T08:59:49;21.10;95.60
66710;DHT22;53624;0.000;0.000;2023-10-09T09:02:18;21.00;94.90
66710;DHT22;53624;0.000;0.000;2023-10-09T09:04:47;21.00;95.20
66710;DHT22;53624;0.000;0.000;2023-10-09T09:07:24;21.10;95.40
66710;DHT22;53624;0.000;0.000;2023-10-09T09:09:54;21.20;95.40
66710;DHT22;53624;0.000;0.000;2023-10-09T09:12:23;21.30;95.30
66710;DHT22;53624;0.000;0.000;2023-10-09T09:14:51;21.30;95.30
66710;DHT22;53624;0.000;0.000;2023-10-09T09:17:25;21.40;94.80
66710;DHT22;53624;0.000;0.000;2023-10-09T09:19:56;21.50;94.80
66710;DHT22;53624;0.000;0.000;2023-10-09T09:22:24;21.60;95.00
66710;DHT22;53624;0.000;0.000;2023-10-09T09:24:56;21.60;94.80
66710;DHT22;53624;0.000;0.000;2023-10-09T09:27:43;21.60;94.90
66710;DHT22;53624;0.000;0.000;2023-10-09T09:30:24;21.80;94.80
66710;DHT22;53624;0.000;0.000;2023-10-09T09:32:59;21.90;94.50
66710;DHT22;53624;0.000;0.000;2023-10-09T09:35:56;22.10;94.80
66710;DHT22;53624;0.000;0.000;2023-10-09T09:38:25;22.20;94.60
66710;DHT22;53624;0.000;0.000;2023-10-09T09:40:54;22.30;94.70
66710;DHT22;53624;0.000;0.000;2023-10-09T09:43:23;22.30;94.10
66710;DHT22;53624;0.000;0.000;2023-10-09T09:45:51;22.40;94.30
66710;DHT22;53624;0.000;0.000;2023-10-09T09:48:24;22.50;94.90
66710;DHT22;53624;0.000;0.000;2023-10-09T09:50:52;22.50;94.50
66710;DHT22;53624;0.000;0.000;2023-10-09T09:53:20;22.60;94.60
66710;DHT22;53624;0.000;0.000;2023-10-09T09:55:49;22.70;94.20
66710;DHT22;53624;0.000;0.000;2023-10-09T09:58:22;22.70;94.30
66710;DHT22;53624;0.000;0.000;2023-10-09T10:00:52;22.80;94.20
66710;DHT22;53624;0.000;0.000;2023-10-09T10:03:21;22.90;94.30
66710;DHT22;53624;0.000;0.000;2023-10-09T10:05:50;23.00;94.50
66710;DHT22;53624;0.000;0.000;2023-10-09T10:08:19;23.00;94.50
66710;DHT22;53624;0.000;0.000;2023-10-09T10:10:46;23.10;94.30
66710;DHT22;53624;0.000;0.000;2023-10-09T10:16:05;23.30;93.90
66710;DHT22;53624;0.000;0.000;2023-10-09T10:18:55;23.30;94.10
66710;DHT22;53624;0.000;0.000;2023-10-09T10:21:27;23.40;94.00
66710;DHT22;53624;0.000;0.000;2023-10-09T10:29:43;23.60;93.90
66710;DHT22;53624;0.000;0.000;2023-10-09T10:32:12;23.70;93.80
66710;DHT22;53624;0.000;0.000;2023-10-09T10:34:53;23.90;93.50
66710;DHT22;53624;0.000;0.000;2023-10-09T10:37:35;24.00;93.40
66710;DHT22;53624;0.000;0.000;2023-10-09T10:40:05;24.10;93.40
66710;DHT22;53624;0.000;0.000;2023-10-09T10:42:46;24.30;93.50
66710;DHT22;53624;0.000;0.000;2023-10-09T10:45:31;24.50;93.60
66710;DHT22;53624;0.000;0.000;2023-10-09T10:48:01;24.60;93.20
66710;DHT22;53624;0.000;0.000;2023-10-09T10:50:33;24.70;92.70
66710;DHT22;53624;0.000;0.000;2023-10-09T10:53:11;24.80;93.00
66710;DHT22;53624;0.000;0.000;2023-10-09T10:55:54;24.90;93.10
66710;DHT22;53624;0.000;0.000;2023-10-09T10:58:22;25.00;92.40
66710;DHT22;53624;0.000;0.000;2023-10-09T11:01:01;25.10;92.40
66710;DHT22;53624;0.000;0.000;2023-10-09T11:03:37;25.20;92.40
66710;DHT22;53624;0.000;0.000;2023-10-09T11:06:27;25.20;92.60
66710;DHT22;53624;0.000;0.000;2023-10-09T11:09:06;25.30;92.30
66710;DHT22;53624;0.000;0.000;2023-10-09T11:11:47;25.40;92.50
66710;DHT22;53624;0.000;0.000;2023-10-09T11:14:15;25.40;92.40
66710;DHT22;53624;0.000;0.000;2023-10-09T11:16:43;25.50;92.20
66710;DHT22;53624;0.000;0.000;2023-10-09T11:19:13;25.60;92.10
66710;DHT22;53624;0.000;0.000;2023-10-09T11:21:55;25.70;92.20
66710;DHT22;53624;0.000;0.000;2023-10-09T11:24:47;25.80;92.30
66710;DHT22;53624;0.000;0.000;2023-10-09T11:27:26;25.90;91.60
66710;DHT22;53624;0.000;0.000;2023-10-09T11:29:58;26.00;91.70
66710;DHT22;53624;0.000;0.000;2023-10-09T11:32:40;26.10;91.70
66710;DHT22;53624;0.000;0.000;2023-10-09T11:35:11;26.20;91.70
66710;DHT22;53624;0.000;0.000;2023-10-09T11:37:39;26.30;91.70
66710;DHT22;53624;0.000;0.000;2023-10-09T11:42:52;26.40;91.20
66710;DHT22;53624;0.000;0.000;2023-10-09T11:45:23;26.50;91.10
66710;DHT22;53624;0.000;0.000;2023-10-09T11:47:54;26.70;90.80
66710;DHT22;53624;0.000;0.000;2023-10-09T11:53:08;26.80;88.90
66710;DHT22;53624;0.000;0.000;2023-10-09T11:55:43;27.00;90.00
66710;DHT22;53624;0.000;0.000;2023-10-09T11:58:16;27.00;90.00
66710;DHT22;53624;0.000;0.000;2023-10-09T12:00:49;27.20;90.10
66710;DHT22;53624;0.000;0.000;2023-10-09T12:03:17;27.20;89.30
66710;DHT22;53624;0.000;0.000;2023-10-09T12:05:49;27.30;88.10
66710;DHT22;53624;0.000;0.000;2023-10-09T12:08:19;27.30;88.90
66710;DHT22;53624;0.000;0.000;2023-10-09T12:10:48;27.40;88.20
66710;DHT22;53624;0.000;0.000;2023-10-09T12:13:16;27.40;88.10
66710;DHT22;53624;0.000;0.000;2023-10-09T12:15:44;27.40;88.10
66710;DHT22;53624;0.000;0.000;2023-10-09T12:18:12;27.50;88.00
66710;DHT22;53624;0.000;0.000;2023-10-09T12:20:41;27.50;87.00
66710;DHT22;53624;0.000;0.000;2023-10-09T12:23:16;27.50;87.20
66710;DHT22;53624;0.000;0.000;2023-10-09T12:25:43;27.60;87.10
66710;DHT22;53624;0.000;0.000;2023-10-09T12:28:11;27.60;87.30
66710;DHT22;53624;0.000;0.000;2023-10-09T12:30:40;27.60;87.20
66710;DHT22;53624;0.000;0.000;2023-10-09T12:33:08;27.70;87.10
66710;DHT22;53624;0.000;0.000;2023-10-09T12:35:36;27.70;86.90
66710;DHT22;53624;0.000;0.000;2023-10-09T12:38:03;27.80;86.50
66710;DHT22;53624;0.000;0.000;2023-10-09T12:40:34;27.90;86.70
66710;DHT22;53624;0.000;0.000;2023-10-09T12:43:02;28.00;86.40
66710;DHT22;53624;0.000;0.000;2023-10-09T12:45:29;27.90;87.20
66710;DHT22;53624;0.000;0.000;2023-10-09T12:48:01;27.90;87.70
66710;DHT22;53624;0.000;0.000;2023-10-09T12:50:34;27.90;88.20
66710;DHT22;53624;0.000;0.000;2023-10-09T12:53:07;28.00;88.50
66710;DHT22;53624;0.000;0.000;2023-10-09T12:55:35;28.10;88.50
66710;DHT22;53624;0.000;0.000;2023-10-09T12:58:06;28.10;88.30
66710;DHT22;53624;0.000;0.000;2023-10-09T13:00:34;28.10;88.10
66710;DHT22;53624;0.000;0.000;2023-10-09T13:03:07;28.00;87.30
66710;DHT22;53624;0.000;0.000;2023-10-09T13:05:45;28.10;86.30
66710;DHT22;53624;0.000;0.000;2023-10-09T13:08:20;28.10;85.00
66710;DHT22;53624;0.000;0.000;2023-10-09T13:10:49;28.20;84.50
66710;DHT22;53624;0.000;0.000;2023-10-09T13:13:25;28.10;84.10
66710;DHT22;53624;0.000;0.000;2023-10-09T13:16:02;28.10;81.90
66710;DHT22;53624;0.000;0.000;2023-10-09T13:18:33;28.10;83.20
66710;DHT22;53624;0.000;0.000;2023-10-09T13:21:00;28.00;82.30
66710;DHT22;53624;0.000;0.000;2023-10-09T13:23:30;28.00;83.50
66710;DHT22;53624;0.000;0.000;2023-10-09T13:26:05;27.80;83.50
66710;DHT22;53624;0.000;0.000;2023-10-09T13:28:44;27.70;84.00
66710;DHT22;53624;0.000;0.000;2023-10-09T13:31:11;27.60;82.40
66710;DHT22;53624;0.000;0.000;2023-10-09T13:33:41;27.50;82.90
66710;DHT22;53624;0.000;0.000;2023-10-09T13:36:09;27.30;83.50
66710;DHT22;53624;0.000;0.000;2023-10-09T13:38:43;27.20;84.20
66710;DHT22;53624;0.000;0.000;2023-10-09T13:41:10;27.10;83.70
66710;DHT22;53624;0.000;0.000;2023-10-09T13:43:40;27.00;84.30
66710;DHT22;53624;0.000;0.000;2023-10-09T13:46:08;26.90;84.30
66710;DHT22;53624;0.000;0.000;2023-10-09T13:48:37;26.80;84.10
66710;DHT22;53624;0.000;0.000;2023-10-09T13:51:09;26.70;84.90
66710;DHT22;53624;0.000;0.000;2023-10-09T13:53:40;26.60;85.70
66710;DHT22;53624;0.000;0.000;2023-10-09T13:56:11;26.50;86.00
66710;DHT22;53624;0.000;0.000;2023-10-09T13:58:40;26.50;83.40
66710;DHT22;53624;0.000;0.000;2023-10-09T14:01:09;26.40;84.10
66710;DHT22;53624;0.000;0.000;2023-10-09T14:03:36;26.40;84.80
66710;DHT22;53624;0.000;0.000;2023-10-09T14:06:04;26.30;85.90
66710;DHT22;53624;0.000;0.000;2023-10-09T14:08:39;26.20;85.60
66710;DHT22;53624;0.000;0.000;2023-10-09T14:11:08;26.10;85.10
66710;DHT22;53624;0.000;0.000;2023-10-09T14:13:39;26.10;85.10
66710;DHT22;53624;0.000;0.000;2023-10-09T14:16:06;26.10;84.50
66710;DHT22;53624;0.000;0.000;2023-10-09T14:18:49;26.00;85.50
66710;DHT22;53624;0.000;0.000;2023-10-09T14:21:19;25.90;86.30
66710;DHT22;53624;0.000;0.000;2023-10-09T14:23:49;25.80;86.80
66710;DHT22;53624;0.000;0.000;2023-10-09T14:26:16;25.70;87.30
66710;DHT22;53624;0.000;0.000;2023-10-09T14:28:44;25.70;87.80
66710;DHT22;53624;0.000;0.000;2023-10-09T14:31:11;25.60;88.60
66710;DHT22;53624;0.000;0.000;2023-10-09T14:33:40;25.60;88.80
66710;DHT22;53624;0.000;0.000;2023-10-09T14:36:09;25.50;89.00
66710;DHT22;53624;0.000;0.000;2023-10-09T14:38:40;25.40;89.30
66710;DHT22;53624;0.000;0.000;2023-10-09T14:41:09;25.40;90.00
66710;DHT22;53624;0.000;0.000;2023-10-09T14:43:37;25.40;90.00
66710;DHT22;53624;0.000;0.000;2023-10-09T14:46:05;25.30;90.20
66710;DHT22;53624;0.000;0.000;2023-10-09T14:48:37;25.30;90.20
66710;DHT22;53624;0.000;0.000;2023-10-09T14:51:04;25.20;90.40
66710;DHT22;53624;0.000;0.000;2023-10-09T14:53:32;25.10;90.60
66710;DHT22;53624;0.000;0.000;2023-10-09T14:56:00;25.10;90.70
66710;DHT22;53624;0.000;0.000;2023-10-09T14:58:30;25.00;90.80
66710;DHT22;53624;0.000;0.000;2023-10-09T15:01:07;25.00;90.80
66710;DHT22;53624;0.000;0.000;2023-10-09T15:03:35;25.00;90.60
66710;DHT22;53624;0.000;0.000;2023-10-09T15:06:04;24.90;90.00
66710;DHT22;53624;0.000;0.000;2023-10-09T15:08:36;24.80;90.30
66710;DHT22;53624;0.000;0.000;2023-10-09T15:11:03;24.50;90.40
66710;DHT22;53624;0.000;0.000;2023-10-09T15:13:33;24.10;90.80
66710;DHT22;53624;0.000;0.000;2023-10-09T15:16:00;24.00;91.60
66710;DHT22;53624;0.000;0.000;2023-10-09T15:18:29;23.80;91.50
66710;DHT22;53624;0.000;0.000;2023-10-09T15:20:59;23.70;91.70
66710;DHT22;53624;0.000;0.000;2023-10-09T15:23:26;23.60;91.80
66710;DHT22;53624;0.000;0.000;2023-10-09T15:25:54;23.60;92.00
66710;DHT22;53624;0.000;0.000;2023-10-09T15:28:21;23.50;92.10
66710;DHT22;53624;0.000;0.000;2023-10-09T15:30:50;23.40;92.20
66710;DHT22;53624;0.000;0.000;2023-10-09T15:33:18;23.40;92.30
66710;DHT22;53624;0.000;0.000;2023-10-09T15:35:46;23.30;92.40
66710;DHT22;53624;0.000;0.000;2023-10-09T15:38:15;23.30;92.50
66710;DHT22;53624;0.000;0.000;2023-10-09T15:40:42;23.20;92.60
66710;DHT22;53624;0.000;0.000;2023-10-09T15:43:13;23.20;92.70
66710;DHT22;53624;0.000;0.000;2023-10-09T15:45:43;23.20;92.80
66710;DHT22;53624;0.000;0.000;2023-10-09T15:48:15;23.10;92.80
66710;DHT22;53624;0.000;0.000;2023-10-09T15:50:47;23.10;92.90
66710;DHT22;53624;0.000;0.000;2023-10-09T15:53:17;23.10;93.10
66710;DHT22;53624;0.000;0.000;2023-10-09T15:55:44;23.00;93.10
66710;DHT22;53624;0.000;0.000;2023-10-09T15:58:12;23.00;93.20
66710;DHT22;53624;0.000;0.000;2023-10-09T16:00:42;23.00;93.20
66710;DHT22;53624;0.000;0.000;2023-10-09T16:03:10;23.10;93.20
66710;DHT22;53624;0.000;0.000;2023-10-09T16:05:41;23.10;93.20
66710;DHT22;53624;0.000;0.000;2023-10-09T16:08:08;23.00;93.20
66710;DHT22;53624;0.000;0.000;2023-10-09T16:10:35;23.00;93.20
66710;DHT22;53624;0.000;0.000;2023-10-09T16:13:03;23.00;93.30
66710;DHT22;53624;0.000;0.000;2023-10-09T16:15:30;23.00;93.40
66710;DHT22;53624;0.000;0.000;2023-10-09T16:17:58;23.00;93.40
66710;DHT22;53624;0.000;0.000;2023-10-09T16:20:32;23.00;93.50
66710;DHT22;53624;0.000;0.000;2023-10-09T16:23:00;22.90;93.50
66710;DHT22;53624;0.000;0.000;2023-10-09T16:25:30;22.90;93.60
66710;DHT22;53624;0.000;0.000;2023-10-09T16:28:00;22.90;93.60
66710;DHT22;53624;0.000;0.000;2023-10-09T16:30:28;22.80;93.70
66710;DHT22;53624;0.000;0.000;2023-10-09T16:32:55;22.80;93.80
66710;DHT22;53624;0.000;0.000;2023-10-09T16:35:23;22.80;93.90
66710;DHT22;53624;0.000;0.000;2023-10-09T16:37:50;22.80;93.90
66710;DHT22;53624;0.000;0.000;2023-10-09T16:40:20;22.80;94.00